sensor_id;sensor_type;location;lat;lon;timestamp;P1;durP1;ratioP1;P2;durP2;ratioP2
60038;SDS011;45916;52.734;6.544;2022-08-25T00:01:13;12.95;;;11.50;;
60038;SDS011;45916;52.734;6.544;2022-08-25T00:03:42;12.65;;;11.45;;
60038;SDS011;45916;52.734;6.544;2022-08-25T00:06:09;12.43;;;11.17;;
60038;SDS011;45916;52.734;6.544;2022-08-25T00:08:35;11.68;;;10.68;;
60038;SDS011;45916;52.734;6.544;2022-08-25T00:11:07;13.43;;;12.18;;
60038;SDS011;45916;52.734;6.544;2022-08-25T00:13:38;13.40;;;12.05;;
60038;SDS011;45916;52.734;6.544;2022-08-25T00:16:12;12.68;;;11.52;;
60038;SDS011;45916;52.734;6.544;2022-08-25T00:18:40;11.23;;;10.10;;
60038;SDS011;45916;52.734;6.544;2022-08-25T00:21:09;11.88;;;10.70;;
60038;SDS011;45916;52.734;6.544;2022-08-25T00:23:34;12.10;;;10.90;;
60038;SDS011;45916;52.734;6.544;2022-08-25T00:26:00;11.50;;;10.30;;
60038;SDS011;45916;52.734;6.544;2022-08-25T00:28:26;12.73;;;11.57;;
60038;SDS011;45916;52.734;6.544;2022-08-25T00:30:54;11.32;;;10.25;;
60038;SDS011;45916;52.734;6.544;2022-08-25T00:33:20;14.25;;;11.30;;
60038;SDS011;45916;52.734;6.544;2022-08-25T00:35:45;12.30;;;11.15;;
60038;SDS011;45916;52.734;6.544;2022-08-25T00:38:12;11.27;;;10.25;;
60038;SDS011;45916;52.734;6.544;2022-08-25T00:40:38;11.07;;;9.18;;
60038;SDS011;45916;52.734;6.544;2022-08-25T00:43:06;10.13;;;9.13;;
60038;SDS011;45916;52.734;6.544;2022-08-25T00:45:33;11.32;;;9.98;;
60038;SDS011;45916;52.734;6.544;2022-08-25T00:47:59;10.77;;;9.77;;
60038;SDS011;45916;52.734;6.544;2022-08-25T00:50:26;13.95;;;9.75;;
60038;SDS011;45916;52.734;6.544;2022-08-25T00:52:55;10.05;;;9.05;;
60038;SDS011;45916;52.734;6.544;2022-08-25T00:55:24;10.98;;;9.88;;
60038;SDS011;45916;52.734;6.544;2022-08-25T00:57:56;11.77;;;9.93;;
60038;SDS011;45916;52.734;6.544;2022-08-25T01:00:31;11.38;;;9.50;;
60038;SDS011;45916;52.734;6.544;2022-08-25T01:02:59;10.13;;;9.10;;
60038;SDS011;45916;52.734;6.544;2022-08-25T01:05:25;11.60;;;9.48;;
60038;SDS011;45916;52.734;6.544;2022-08-25T01:07:52;10.85;;;9.23;;
60038;SDS011;45916;52.734;6.544;2022-08-25T01:10:20;12.48;;;9.23;;
60038;SDS011;45916;52.734;6.544;2022-08-25T01:12:47;12.00;;;9.60;;
60038;SDS011;45916;52.734;6.544;2022-08-25T01:15:14;10.30;;;9.20;;
60038;SDS011;45916;52.734;6.544;2022-08-25T01:17:45;10.48;;;8.68;;
60038;SDS011;45916;52.734;6.544;2022-08-25T01:20:11;11.35;;;10.15;;
60038;SDS011;45916;52.734;6.544;2022-08-25T01:22:38;10.53;;;9.37;;
60038;SDS011;45916;52.734;6.544;2022-08-25T01:25:06;12.85;;;9.18;;
60038;SDS011;45916;52.734;6.544;2022-08-25T01:27:57;10.85;;;9.18;;
60038;SDS011;45916;52.734;6.544;2022-08-25T01:30:24;10.02;;;9.13;;
60038;SDS011;45916;52.734;6.544;2022-08-25T01:32:50;8.95;;;8.00;;
60038;SDS011;45916;52.734;6.544;2022-08-25T01:35:15;9.90;;;8.50;;
60038;SDS011;45916;52.734;6.544;2022-08-25T01:37:42;9.40;;;8.40;;
60038;SDS011;45916;52.734;6.544;2022-08-25T01:40:08;9.75;;;8.75;;
60038;SDS011;45916;52.734;6.544;2022-08-25T01:42:57;11.93;;;9.27;;
60038;SDS011;45916;52.734;6.544;2022-08-25T01:45:32;10.90;;;8.77;;
60038;SDS011;45916;52.734;6.544;2022-08-25T01:47:59;10.05;;;8.77;;
60038;SDS011;45916;52.734;6.544;2022-08-25T01:50:25;10.30;;;8.90;;
60038;SDS011;45916;52.734;6.544;2022-08-25T01:52:58;11.63;;;9.45;;
60038;SDS011;45916;52.734;6.544;2022-08-25T01:55:28;9.68;;;8.40;;
60038;SDS011;45916;52.734;6.544;2022-08-25T01:57:54;10.48;;;8.23;;
60038;SDS011;45916;52.734;6.544;2022-08-25T02:00:20;9.65;;;7.78;;
60038;SDS011;45916;52.734;6.544;2022-08-25T02:02:46;10.60;;;7.70;;
60038;SDS011;45916;52.734;6.544;2022-08-25T02:05:13;9.20;;;8.23;;
60038;SDS011;45916;52.734;6.544;2022-08-25T02:07:40;8.45;;;7.38;;
60038;SDS011;45916;52.734;6.544;2022-08-25T02:10:08;8.87;;;7.93;;
60038;SDS011;45916;52.734;6.544;2022-08-25T02:12:36;10.23;;;8.07;;
60038;SDS011;45916;52.734;6.544;2022-08-25T02:15:03;9.15;;;8.07;;
60038;SDS011;45916;52.734;6.544;2022-08-25T02:17:30;9.32;;;7.45;;
60038;SDS011;45916;52.734;6.544;2022-08-25T02:19:56;8.85;;;7.55;;
60038;SDS011;45916;52.734;6.544;2022-08-25T02:22:22;9.55;;;7.78;;
60038;SDS011;45916;52.734;6.544;2022-08-25T02:24:49;9.85;;;6.93;;
60038;SDS011;45916;52.734;6.544;2022-08-25T02:27:15;8.27;;;7.47;;
60038;SDS011;45916;52.734;6.544;2022-08-25T02:29:40;9.27;;;6.88;;
60038;SDS011;45916;52.734;6.544;2022-08-25T02:32:06;8.30;;;7.28;;
60038;SDS011;45916;52.734;6.544;2022-08-25T02:34:32;8.32;;;7.00;;
60038;SDS011;45916;52.734;6.544;2022-08-25T02:36:59;9.88;;;6.72;;
60038;SDS011;45916;52.734;6.544;2022-08-25T02:39:26;8.60;;;7.05;;
60038;SDS011;45916;52.734;6.544;2022-08-25T02:41:51;7.65;;;6.93;;
60038;SDS011;45916;52.734;6.544;2022-08-25T02:44:17;10.50;;;6.97;;
60038;SDS011;45916;52.734;6.544;2022-08-25T02:46:43;7.53;;;6.63;;
60038;SDS011;45916;52.734;6.544;2022-08-25T02:49:09;9.43;;;7.15;;
60038;SDS011;45916;52.734;6.544;2022-08-25T02:51:34;9.57;;;6.43;;
60038;SDS011;45916;52.734;6.544;2022-08-25T02:54:00;8.10;;;6.68;;
60038;SDS011;45916;52.734;6.544;2022-08-25T02:56:28;11.10;;;7.13;;
60038;SDS011;45916;52.734;6.544;2022-08-25T02:58:55;9.07;;;7.00;;
60038;SDS011;45916;52.734;6.544;2022-08-25T03:01:21;8.80;;;7.53;;
60038;SDS011;45916;52.734;6.544;2022-08-25T03:03:47;8.45;;;6.22;;
60038;SDS011;45916;52.734;6.544;2022-08-25T03:06:15;9.20;;;6.30;;
60038;SDS011;45916;52.734;6.544;2022-08-25T03:08:43;8.45;;;6.63;;
60038;SDS011;45916;52.734;6.544;2022-08-25T03:11:09;10.30;;;7.20;;
60038;SDS011;45916;52.734;6.544;2022-08-25T03:13:35;9.40;;;6.25;;
60038;SDS011;45916;52.734;6.544;2022-08-25T03:16:01;9.73;;;6.45;;
60038;SDS011;45916;52.734;6.544;2022-08-25T03:18:29;10.32;;;6.97;;
60038;SDS011;45916;52.734;6.544;2022-08-25T03:20:55;9.60;;;7.18;;
60038;SDS011;45916;52.734;6.544;2022-08-25T03:23:21;9.90;;;7.25;;
60038;SDS011;45916;52.734;6.544;2022-08-25T03:25:47;9.20;;;6.82;;
60038;SDS011;45916;52.734;6.544;2022-08-25T03:28:31;8.00;;;6.65;;
60038;SDS011;45916;52.734;6.544;2022-08-25T03:30:58;8.95;;;6.78;;
60038;SDS011;45916;52.734;6.544;2022-08-25T03:33:25;9.25;;;7.05;;
60038;SDS011;45916;52.734;6.544;2022-08-25T03:35:52;9.35;;;7.20;;
60038;SDS011;45916;52.734;6.544;2022-08-25T03:38:18;8.80;;;7.32;;
60038;SDS011;45916;52.734;6.544;2022-08-25T03:40:43;7.95;;;6.38;;
60038;SDS011;45916;52.734;6.544;2022-08-25T03:43:13;8.95;;;6.93;;
60038;SDS011;45916;52.734;6.544;2022-08-25T03:45:39;8.57;;;6.53;;
60038;SDS011;45916;52.734;6.544;2022-08-25T03:48:06;10.23;;;6.93;;
60038;SDS011;45916;52.734;6.544;2022-08-25T03:50:32;9.15;;;6.47;;
60038;SDS011;45916;52.734;6.544;2022-08-25T03:52:59;8.75;;;6.43;;
60038;SDS011;45916;52.734;6.544;2022-08-25T03:55:25;9.10;;;7.00;;
60038;SDS011;45916;52.734;6.544;2022-08-25T03:57:52;11.25;;;6.85;;
60038;SDS011;45916;52.734;6.544;2022-08-25T04:00:20;8.15;;;6.28;;
60038;SDS011;45916;52.734;6.544;2022-08-25T04:02:47;9.27;;;6.57;;
60038;SDS011;45916;52.734;6.544;2022-08-25T04:05:13;8.02;;;6.85;;
60038;SDS011;45916;52.734;6.544;2022-08-25T04:07:39;8.77;;;7.00;;
60038;SDS011;45916;52.734;6.544;2022-08-25T04:10:06;8.95;;;6.38;;
60038;SDS011;45916;52.734;6.544;2022-08-25T04:12:34;12.32;;;7.38;;
60038;SDS011;45916;52.734;6.544;2022-08-25T04:15:00;8.82;;;7.32;;
60038;SDS011;45916;52.734;6.544;2022-08-25T04:17:28;9.60;;;5.95;;
60038;SDS011;45916;52.734;6.544;2022-08-25T04:19:54;8.63;;;7.13;;
60038;SDS011;45916;52.734;6.544;2022-08-25T04:22:20;10.75;;;7.07;;
60038;SDS011;45916;52.734;6.544;2022-08-25T04:24:46;9.50;;;6.57;;
60038;SDS011;45916;52.734;6.544;2022-08-25T04:27:12;9.32;;;6.30;;
60038;SDS011;45916;52.734;6.544;2022-08-25T04:29:38;7.78;;;6.53;;
60038;SDS011;45916;52.734;6.544;2022-08-25T04:32:03;9.38;;;7.22;;
60038;SDS011;45916;52.734;6.544;2022-08-25T04:34:29;11.70;;;6.55;;
60038;SDS011;45916;52.734;6.544;2022-08-25T04:36:56;8.95;;;7.25;;
60038;SDS011;45916;52.734;6.544;2022-08-25T04:39:26;9.27;;;6.93;;
60038;SDS011;45916;52.734;6.544;2022-08-25T04:41:52;8.75;;;7.85;;
60038;SDS011;45916;52.734;6.544;2022-08-25T04:44:18;9.60;;;8.60;;
60038;SDS011;45916;52.734;6.544;2022-08-25T04:46:43;8.35;;;7.15;;
60038;SDS011;45916;52.734;6.544;2022-08-25T04:49:09;11.65;;;7.97;;
60038;SDS011;45916;52.734;6.544;2022-08-25T04:51:36;9.50;;;7.53;;
60038;SDS011;45916;52.734;6.544;2022-08-25T04:54:05;10.13;;;7.35;;
60038;SDS011;45916;52.734;6.544;2022-08-25T04:56:34;9.63;;;7.40;;
60038;SDS011;45916;52.734;6.544;2022-08-25T04:59:04;12.70;;;7.07;;
60038;SDS011;45916;52.734;6.544;2022-08-25T05:01:35;8.65;;;7.03;;
60038;SDS011;45916;52.734;6.544;2022-08-25T05:04:02;8.90;;;6.90;;
60038;SDS011;45916;52.734;6.544;2022-08-25T05:06:31;8.93;;;6.30;;
60038;SDS011;45916;52.734;6.544;2022-08-25T05:08:58;10.73;;;6.75;;
60038;SDS011;45916;52.734;6.544;2022-08-25T05:11:25;8.20;;;6.70;;
60038;SDS011;45916;52.734;6.544;2022-08-25T05:13:53;10.13;;;6.60;;
60038;SDS011;45916;52.734;6.544;2022-08-25T05:18:47;9.10;;;6.38;;
60038;SDS011;45916;52.734;6.544;2022-08-25T05:21:14;7.68;;;6.30;;
60038;SDS011;45916;52.734;6.544;2022-08-25T05:23:43;11.80;;;6.10;;
60038;SDS011;45916;52.734;6.544;2022-08-25T05:26:14;11.02;;;7.25;;
60038;SDS011;45916;52.734;6.544;2022-08-25T05:28:42;8.30;;;6.22;;
60038;SDS011;45916;52.734;6.544;2022-08-25T05:31:09;10.23;;;6.50;;
60038;SDS011;45916;52.734;6.544;2022-08-25T05:33:37;9.93;;;6.13;;
60038;SDS011;45916;52.734;6.544;2022-08-25T05:36:04;8.32;;;6.20;;
60038;SDS011;45916;52.734;6.544;2022-08-25T05:38:31;8.80;;;6.00;;
60038;SDS011;45916;52.734;6.544;2022-08-25T05:41:03;8.20;;;6.03;;
60038;SDS011;45916;52.734;6.544;2022-08-25T05:43:34;6.60;;;5.35;;
60038;SDS011;45916;52.734;6.544;2022-08-25T05:46:05;10.35;;;5.80;;
60038;SDS011;45916;52.734;6.544;2022-08-25T05:48:31;9.02;;;6.50;;
60038;SDS011;45916;52.734;6.544;2022-08-25T05:50:57;7.70;;;6.32;;
60038;SDS011;45916;52.734;6.544;2022-08-25T05:53:25;8.55;;;6.10;;
60038;SDS011;45916;52.734;6.544;2022-08-25T05:55:52;8.60;;;5.38;;
60038;SDS011;45916;52.734;6.544;2022-08-25T05:58:21;10.15;;;6.38;;
60038;SDS011;45916;52.734;6.544;2022-08-25T06:00:48;9.50;;;5.78;;
60038;SDS011;45916;52.734;6.544;2022-08-25T06:03:15;7.15;;;5.53;;
60038;SDS011;45916;52.734;6.544;2022-08-25T06:05:41;11.18;;;5.90;;
60038;SDS011;45916;52.734;6.544;2022-08-25T06:08:07;7.78;;;5.30;;
60038;SDS011;45916;52.734;6.544;2022-08-25T06:10:33;7.45;;;5.78;;
60038;SDS011;45916;52.734;6.544;2022-08-25T06:12:59;7.57;;;6.20;;
60038;SDS011;45916;52.734;6.544;2022-08-25T06:15:25;9.68;;;5.50;;
60038;SDS011;45916;52.734;6.544;2022-08-25T06:17:52;9.10;;;5.88;;
60038;SDS011;45916;52.734;6.544;2022-08-25T06:20:21;8.63;;;5.50;;
60038;SDS011;45916;52.734;6.544;2022-08-25T06:22:48;7.80;;;5.80;;
60038;SDS011;45916;52.734;6.544;2022-08-25T06:25:16;6.80;;;5.43;;
60038;SDS011;45916;52.734;6.544;2022-08-25T06:27:43;8.93;;;5.43;;
60038;SDS011;45916;52.734;6.544;2022-08-25T06:30:10;8.00;;;5.75;;
60038;SDS011;45916;52.734;6.544;2022-08-25T06:32:39;6.97;;;4.70;;
60038;SDS011;45916;52.734;6.544;2022-08-25T06:35:08;7.07;;;5.05;;
60038;SDS011;45916;52.734;6.544;2022-08-25T06:37:38;8.32;;;5.55;;
60038;SDS011;45916;52.734;6.544;2022-08-25T06:40:06;8.57;;;5.20;;
60038;SDS011;45916;52.734;6.544;2022-08-25T06:44:59;8.90;;;5.80;;
60038;SDS011;45916;52.734;6.544;2022-08-25T06:47:25;9.55;;;5.50;;
60038;SDS011;45916;52.734;6.544;2022-08-25T06:49:51;7.43;;;5.10;;
60038;SDS011;45916;52.734;6.544;2022-08-25T06:52:17;6.20;;;5.05;;
60038;SDS011;45916;52.734;6.544;2022-08-25T06:54:44;9.05;;;5.10;;
60038;SDS011;45916;52.734;6.544;2022-08-25T06:57:10;9.52;;;5.47;;
60038;SDS011;45916;52.734;6.544;2022-08-25T06:59:36;8.05;;;4.85;;
60038;SDS011;45916;52.734;6.544;2022-08-25T07:02:02;7.90;;;5.25;;
60038;SDS011;45916;52.734;6.544;2022-08-25T07:06:56;8.95;;;5.90;;
60038;SDS011;45916;52.734;6.544;2022-08-25T07:09:21;7.72;;;4.93;;
60038;SDS011;45916;52.734;6.544;2022-08-25T07:11:47;8.55;;;4.80;;
60038;SDS011;45916;52.734;6.544;2022-08-25T07:14:14;6.88;;;4.55;;
60038;SDS011;45916;52.734;6.544;2022-08-25T07:16:41;8.35;;;5.20;;
60038;SDS011;45916;52.734;6.544;2022-08-25T07:19:07;7.35;;;5.13;;
60038;SDS011;45916;52.734;6.544;2022-08-25T07:21:35;9.30;;;6.03;;
60038;SDS011;45916;52.734;6.544;2022-08-25T07:24:04;7.90;;;5.20;;
60038;SDS011;45916;52.734;6.544;2022-08-25T07:26:34;8.88;;;5.13;;
60038;SDS011;45916;52.734;6.544;2022-08-25T07:29:02;8.70;;;5.20;;
60038;SDS011;45916;52.734;6.544;2022-08-25T07:31:30;10.25;;;5.00;;
60038;SDS011;45916;52.734;6.544;2022-08-25T07:33:56;8.38;;;5.05;;
60038;SDS011;45916;52.734;6.544;2022-08-25T07:36:40;9.68;;;5.32;;
60038;SDS011;45916;52.734;6.544;2022-08-25T07:39:07;8.50;;;4.90;;
60038;SDS011;45916;52.734;6.544;2022-08-25T07:41:35;8.60;;;5.93;;
60038;SDS011;45916;52.734;6.544;2022-08-25T07:44:02;11.18;;;4.90;;
60038;SDS011;45916;52.734;6.544;2022-08-25T07:46:28;6.40;;;4.68;;
60038;SDS011;45916;52.734;6.544;2022-08-25T07:48:54;7.17;;;4.57;;
60038;SDS011;45916;52.734;6.544;2022-08-25T07:51:19;7.18;;;5.07;;
60038;SDS011;45916;52.734;6.544;2022-08-25T07:53:45;8.03;;;4.67;;
60038;SDS011;45916;52.734;6.544;2022-08-25T07:56:12;7.53;;;5.20;;
60038;SDS011;45916;52.734;6.544;2022-08-25T07:58:40;9.05;;;5.25;;
60038;SDS011;45916;52.734;6.544;2022-08-25T08:01:07;7.85;;;4.40;;
60038;SDS011;45916;52.734;6.544;2022-08-25T08:03:42;8.80;;;4.90;;
60038;SDS011;45916;52.734;6.544;2022-08-25T08:06:09;7.00;;;5.20;;
60038;SDS011;45916;52.734;6.544;2022-08-25T08:08:36;7.40;;;5.47;;
60038;SDS011;45916;52.734;6.544;2022-08-25T08:11:03;6.10;;;4.45;;
60038;SDS011;45916;52.734;6.544;2022-08-25T08:13:29;7.32;;;4.72;;
60038;SDS011;45916;52.734;6.544;2022-08-25T08:15:55;7.80;;;5.35;;
60038;SDS011;45916;52.734;6.544;2022-08-25T08:18:21;9.03;;;5.60;;
60038;SDS011;45916;52.734;6.544;2022-08-25T08:20:47;7.90;;;4.50;;
60038;SDS011;45916;52.734;6.544;2022-08-25T08:23:13;6.80;;;5.03;;
60038;SDS011;45916;52.734;6.544;2022-08-25T08:25:40;6.20;;;4.47;;
60038;SDS011;45916;52.734;6.544;2022-08-25T08:28:05;8.03;;;4.87;;
60038;SDS011;45916;52.734;6.544;2022-08-25T08:30:31;7.53;;;4.77;;
60038;SDS011;45916;52.734;6.544;2022-08-25T08:32:58;7.67;;;4.63;;
60038;SDS011;45916;52.734;6.544;2022-08-25T08:35:24;8.48;;;4.65;;
60038;SDS011;45916;52.734;6.544;2022-08-25T08:37:50;6.50;;;4.37;;
60038;SDS011;45916;52.734;6.544;2022-08-25T08:40:17;8.20;;;4.47;;
60038;SDS011;45916;52.734;6.544;2022-08-25T08:45:39;9.02;;;4.43;;
60038;SDS011;45916;52.734;6.544;2022-08-25T08:51:11;7.97;;;4.53;;
60038;SDS011;45916;52.734;6.544;2022-08-25T08:53:43;7.97;;;5.10;;
60038;SDS011;45916;52.734;6.544;2022-08-25T08:56:12;7.22;;;4.50;;
60038;SDS011;45916;52.734;6.544;2022-08-25T09:01:33;7.57;;;4.40;;
60038;SDS011;45916;52.734;6.544;2022-08-25T09:10:04;8.07;;;4.40;;
60038;SDS011;45916;52.734;6.544;2022-08-25T09:21:24;6.45;;;3.85;;
60038;SDS011;45916;52.734;6.544;2022-08-25T09:30:11;6.82;;;3.92;;
60038;SDS011;45916;52.734;6.544;2022-08-25T09:32:42;6.43;;;3.70;;
60038;SDS011;45916;52.734;6.544;2022-08-25T09:35:16;6.63;;;3.45;;
60038;SDS011;45916;52.734;6.544;2022-08-25T09:40:23;8.05;;;3.45;;
60038;SDS011;45916;52.734;6.544;2022-08-25T09:42:50;5.60;;;3.47;;
60038;SDS011;45916;52.734;6.544;2022-08-25T09:45:33;6.63;;;3.80;;
60038;SDS011;45916;52.734;6.544;2022-08-25T09:48:51;7.03;;;4.25;;
60038;SDS011;45916;52.734;6.544;2022-08-25T09:50:52;5.40;;;4.03;;
60038;SDS011;45916;52.734;6.544;2022-08-25T09:53:22;7.53;;;3.75;;
60038;SDS011;45916;52.734;6.544;2022-08-25T09:55:51;6.85;;;4.13;;
60038;SDS011;45916;52.734;6.544;2022-08-25T09:58:24;6.45;;;3.75;;
60038;SDS011;45916;52.734;6.544;2022-08-25T10:03:25;5.40;;;3.67;;
60038;SDS011;45916;52.734;6.544;2022-08-25T10:08:32;7.30;;;4.03;;
60038;SDS011;45916;52.734;6.544;2022-08-25T10:11:48;5.65;;;3.30;;
60038;SDS011;45916;52.734;6.544;2022-08-25T10:14:07;6.43;;;3.30;;
60038;SDS011;45916;52.734;6.544;2022-08-25T10:17:11;6.13;;;4.50;;
60038;SDS011;45916;52.734;6.544;2022-08-25T10:19:37;5.43;;;3.50;;
60038;SDS011;45916;52.734;6.544;2022-08-25T10:22:08;7.97;;;3.92;;
60038;SDS011;45916;52.734;6.544;2022-08-25T10:24:48;7.38;;;3.63;;
60038;SDS011;45916;52.734;6.544;2022-08-25T10:35:28;5.03;;;3.20;;
60038;SDS011;45916;52.734;6.544;2022-08-25T10:51:23;6.10;;;4.18;;
60038;SDS011;45916;52.734;6.544;2022-08-25T10:54:17;5.57;;;3.70;;
60038;SDS011;45916;52.734;6.544;2022-08-25T10:59:39;5.65;;;3.55;;
60038;SDS011;45916;52.734;6.544;2022-08-25T11:08:15;7.30;;;4.18;;
60038;SDS011;45916;52.734;6.544;2022-08-25T11:19:05;6.47;;;3.50;;
60038;SDS011;45916;52.734;6.544;2022-08-25T11:24:13;6.75;;;3.63;;
60038;SDS011;45916;52.734;6.544;2022-08-25T11:27:03;6.82;;;3.92;;
60038;SDS011;45916;52.734;6.544;2022-08-25T11:29:30;7.47;;;3.50;;
60038;SDS011;45916;52.734;6.544;2022-08-25T11:32:00;5.75;;;3.15;;
60038;SDS011;45916;52.734;6.544;2022-08-25T11:34:31;6.07;;;3.72;;
60038;SDS011;45916;52.734;6.544;2022-08-25T11:37:02;7.03;;;3.58;;
60038;SDS011;45916;52.734;6.544;2022-08-25T11:42:23;6.72;;;3.58;;
60038;SDS011;45916;52.734;6.544;2022-08-25T11:47:58;5.72;;;3.17;;
60038;SDS011;45916;52.734;6.544;2022-08-25T11:51:02;6.65;;;3.25;;
60038;SDS011;45916;52.734;6.544;2022-08-25T11:53:37;6.03;;;3.10;;
60038;SDS011;45916;52.734;6.544;2022-08-25T11:56:12;5.50;;;3.17;;
60038;SDS011;45916;52.734;6.544;2022-08-25T11:58:58;5.88;;;3.65;;
60038;SDS011;45916;52.734;6.544;2022-08-25T12:09:30;7.55;;;3.55;;
60038;SDS011;45916;52.734;6.544;2022-08-25T12:12:35;6.78;;;4.07;;
60038;SDS011;45916;52.734;6.544;2022-08-25T12:15:23;5.47;;;3.28;;
60038;SDS011;45916;52.734;6.544;2022-08-25T12:23:28;6.65;;;2.97;;
60038;SDS011;45916;52.734;6.544;2022-08-25T12:25:59;6.30;;;3.35;;
60038;SDS011;45916;52.734;6.544;2022-08-25T12:28:41;6.05;;;3.30;;
60038;SDS011;45916;52.734;6.544;2022-08-25T12:31:22;7.90;;;4.18;;
60038;SDS011;45916;52.734;6.544;2022-08-25T12:36:33;6.32;;;3.10;;
60038;SDS011;45916;52.734;6.544;2022-08-25T12:42:00;6.43;;;3.85;;
60038;SDS011;45916;52.734;6.544;2022-08-25T12:47:12;5.80;;;3.05;;
60038;SDS011;45916;52.734;6.544;2022-08-25T12:49:44;5.10;;;3.08;;
60038;SDS011;45916;52.734;6.544;2022-08-25T12:54:59;6.90;;;3.00;;
60038;SDS011;45916;52.734;6.544;2022-08-25T12:57:37;6.00;;;3.58;;
60038;SDS011;45916;52.734;6.544;2022-08-25T13:00:15;6.82;;;3.60;;
60038;SDS011;45916;52.734;6.544;2022-08-25T13:06:12;5.68;;;2.90;;
60038;SDS011;45916;52.734;6.544;2022-08-25T13:12:03;6.45;;;3.65;;
60038;SDS011;45916;52.734;6.544;2022-08-25T13:14:57;6.20;;;4.13;;
60038;SDS011;45916;52.734;6.544;2022-08-25T13:17:34;4.93;;;2.88;;
60038;SDS011;45916;52.734;6.544;2022-08-25T13:20:09;7.07;;;4.25;;
60038;SDS011;45916;52.734;6.544;2022-08-25T13:22:50;6.45;;;3.42;;
60038;SDS011;45916;52.734;6.544;2022-08-25T13:25:21;5.85;;;3.70;;
60038;SDS011;45916;52.734;6.544;2022-08-25T13:30:29;6.22;;;3.45;;
60038;SDS011;45916;52.734;6.544;2022-08-25T13:33:14;6.47;;;3.63;;
60038;SDS011;45916;52.734;6.544;2022-08-25T13:35:49;5.95;;;4.30;;
60038;SDS011;45916;52.734;6.544;2022-08-25T13:38:38;7.68;;;3.92;;
60038;SDS011;45916;52.734;6.544;2022-08-25T13:41:04;5.55;;;3.60;;
60038;SDS011;45916;52.734;6.544;2022-08-25T13:43:31;5.95;;;4.72;;
60038;SDS011;45916;52.734;6.544;2022-08-25T13:45:57;5.68;;;3.47;;
60038;SDS011;45916;52.734;6.544;2022-08-25T13:48:31;6.93;;;4.43;;
60038;SDS011;45916;52.734;6.544;2022-08-25T13:51:33;5.40;;;3.80;;
60038;SDS011;45916;52.734;6.544;2022-08-25T13:53:56;5.50;;;3.92;;
60038;SDS011;45916;52.734;6.544;2022-08-25T13:59:02;7.28;;;3.72;;
60038;SDS011;45916;52.734;6.544;2022-08-25T14:01:42;6.85;;;4.22;;
60038;SDS011;45916;52.734;6.544;2022-08-25T14:07:06;6.57;;;4.38;;
60038;SDS011;45916;52.734;6.544;2022-08-25T14:09:52;5.65;;;4.10;;
60038;SDS011;45916;52.734;6.544;2022-08-25T14:12:25;7.88;;;3.50;;
60038;SDS011;45916;52.734;6.544;2022-08-25T14:17:31;7.32;;;4.90;;
60038;SDS011;45916;52.734;6.544;2022-08-25T14:20:02;6.03;;;4.22;;
60038;SDS011;45916;52.734;6.544;2022-08-25T14:22:29;7.10;;;4.38;;
60038;SDS011;45916;52.734;6.544;2022-08-25T14:24:55;6.45;;;4.47;;
60038;SDS011;45916;52.734;6.544;2022-08-25T14:27:21;7.47;;;4.60;;
60038;SDS011;45916;52.734;6.544;2022-08-25T14:29:47;7.10;;;4.03;;
60038;SDS011;45916;52.734;6.544;2022-08-25T14:32:13;6.75;;;4.32;;
60038;SDS011;45916;52.734;6.544;2022-08-25T14:34:40;7.28;;;5.00;;
60038;SDS011;45916;52.734;6.544;2022-08-25T14:37:16;7.38;;;4.70;;
60038;SDS011;45916;52.734;6.544;2022-08-25T14:39:43;8.18;;;4.55;;
60038;SDS011;45916;52.734;6.544;2022-08-25T14:42:10;7.00;;;4.45;;
60038;SDS011;45916;52.734;6.544;2022-08-25T14:44:36;7.03;;;4.63;;
60038;SDS011;45916;52.734;6.544;2022-08-25T14:47:02;9.07;;;5.85;;
60038;SDS011;45916;52.734;6.544;2022-08-25T14:49:31;7.13;;;5.47;;
60038;SDS011;45916;52.734;6.544;2022-08-25T14:52:03;9.80;;;5.88;;
60038;SDS011;45916;52.734;6.544;2022-08-25T14:54:33;10.25;;;6.57;;
60038;SDS011;45916;52.734;6.544;2022-08-25T14:56:59;10.35;;;6.80;;
60038;SDS011;45916;52.734;6.544;2022-08-25T14:59:25;7.63;;;4.93;;
60038;SDS011;45916;52.734;6.544;2022-08-25T15:01:51;8.52;;;5.65;;
60038;SDS011;45916;52.734;6.544;2022-08-25T15:04:21;7.78;;;5.80;;
60038;SDS011;45916;52.734;6.544;2022-08-25T15:06:53;7.18;;;5.00;;
60038;SDS011;45916;52.734;6.544;2022-08-25T15:09:20;7.22;;;6.03;;
60038;SDS011;45916;52.734;6.544;2022-08-25T15:11:47;7.00;;;5.00;;
60038;SDS011;45916;52.734;6.544;2022-08-25T15:14:17;12.00;;;5.75;;
60038;SDS011;45916;52.734;6.544;2022-08-25T15:16:50;8.70;;;5.60;;
60038;SDS011;45916;52.734;6.544;2022-08-25T15:19:19;6.82;;;5.95;;
60038;SDS011;45916;52.734;6.544;2022-08-25T15:21:47;9.18;;;6.63;;
60038;SDS011;45916;52.734;6.544;2022-08-25T15:24:14;8.68;;;5.80;;
60038;SDS011;45916;52.734;6.544;2022-08-25T15:26:43;10.65;;;5.93;;
60038;SDS011;45916;52.734;6.544;2022-08-25T15:29:21;8.10;;;6.20;;
60038;SDS011;45916;52.734;6.544;2022-08-25T15:31:48;6.68;;;5.00;;
60038;SDS011;45916;52.734;6.544;2022-08-25T15:34:14;7.13;;;5.15;;
60038;SDS011;45916;52.734;6.544;2022-08-25T15:36:40;8.55;;;5.70;;
60038;SDS011;45916;52.734;6.544;2022-08-25T15:39:06;7.78;;;5.75;;
60038;SDS011;45916;52.734;6.544;2022-08-25T15:41:33;8.48;;;6.22;;
60038;SDS011;45916;52.734;6.544;2022-08-25T15:46:27;8.88;;;5.90;;
60038;SDS011;45916;52.734;6.544;2022-08-25T15:48:54;7.18;;;5.45;;
60038;SDS011;45916;52.734;6.544;2022-08-25T15:51:21;6.90;;;5.65;;
60038;SDS011;45916;52.734;6.544;2022-08-25T15:53:47;8.50;;;7.60;;
60038;SDS011;45916;52.734;6.544;2022-08-25T15:56:13;9.85;;;7.03;;
60038;SDS011;45916;52.734;6.544;2022-08-25T15:58:42;8.45;;;7.05;;
60038;SDS011;45916;52.734;6.544;2022-08-25T16:01:12;9.93;;;7.18;;
60038;SDS011;45916;52.734;6.544;2022-08-25T16:03:41;7.05;;;5.63;;
60038;SDS011;45916;52.734;6.544;2022-08-25T16:06:07;7.85;;;6.28;;
60038;SDS011;45916;52.734;6.544;2022-08-25T16:08:33;6.82;;;5.70;;
60038;SDS011;45916;52.734;6.544;2022-08-25T16:10:59;8.35;;;6.43;;
60038;SDS011;45916;52.734;6.544;2022-08-25T16:13:25;10.05;;;6.90;;
60038;SDS011;45916;52.734;6.544;2022-08-25T16:15:52;9.55;;;6.47;;
60038;SDS011;45916;52.734;6.544;2022-08-25T16:18:19;9.23;;;6.40;;
60038;SDS011;45916;52.734;6.544;2022-08-25T16:20:46;8.13;;;6.22;;
60038;SDS011;45916;52.734;6.544;2022-08-25T16:23:13;8.00;;;5.75;;
60038;SDS011;45916;52.734;6.544;2022-08-25T16:25:42;7.60;;;5.70;;
60038;SDS011;45916;52.734;6.544;2022-08-25T16:28:09;9.70;;;6.18;;
60038;SDS011;45916;52.734;6.544;2022-08-25T16:30:36;7.45;;;5.57;;
60038;SDS011;45916;52.734;6.544;2022-08-25T16:33:04;9.85;;;5.68;;
60038;SDS011;45916;52.734;6.544;2022-08-25T16:35:30;8.50;;;6.95;;
60038;SDS011;45916;52.734;6.544;2022-08-25T16:37:57;8.57;;;6.40;;
60038;SDS011;45916;52.734;6.544;2022-08-25T16:40:22;8.00;;;5.80;;
60038;SDS011;45916;52.734;6.544;2022-08-25T16:42:50;7.28;;;6.13;;
60038;SDS011;45916;52.734;6.544;2022-08-25T16:45:17;8.93;;;6.28;;
60038;SDS011;45916;52.734;6.544;2022-08-25T16:47:43;9.00;;;6.13;;
60038;SDS011;45916;52.734;6.544;2022-08-25T16:50:10;7.57;;;6.30;;
60038;SDS011;45916;52.734;6.544;2022-08-25T16:52:36;10.07;;;6.13;;
60038;SDS011;45916;52.734;6.544;2022-08-25T16:55:21;7.65;;;6.10;;
60038;SDS011;45916;52.734;6.544;2022-08-25T16:57:48;8.73;;;5.70;;
60038;SDS011;45916;52.734;6.544;2022-08-25T17:00:19;8.35;;;6.15;;
60038;SDS011;45916;52.734;6.544;2022-08-25T17:02:59;7.70;;;6.45;;
60038;SDS011;45916;52.734;6.544;2022-08-25T17:05:28;7.75;;;6.82;;
60038;SDS011;45916;52.734;6.544;2022-08-25T17:08:00;7.90;;;6.50;;
60038;SDS011;45916;52.734;6.544;2022-08-25T17:10:45;7.28;;;6.00;;
60038;SDS011;45916;52.734;6.544;2022-08-25T17:13:11;10.25;;;6.90;;
60038;SDS011;45916;52.734;6.544;2022-08-25T17:15:38;7.55;;;6.20;;